Flight Track Log - Related Links

Times and Time Zones

All times are in EDT time to prevent confusion due to time zone crossing. See the DAL1562 flight status page for this flight to view local times or setup timezone preferences in your user account.

Time Position Orientation Groundspeed Altitude Reporting Facility
EDT Latitude Longitude Course Direction KTS km/h meters Rate Location/Type
Wed 16:24:56 42.2272 -83.3369 26° Northeast 145 269 427  Level Cleveland Center
Wed 16:25:14 42.2397 -83.3289 26° Northeast 151 280 671 610 Climbing Cleveland Center
Wed 16:25:29 42.2472 -83.3192 44° Northeast 187 346 762 529 Climbing FAA TRACON SMA TRACON (SMA)
Wed 16:25:52 42.2661 -83.3031 32° Northeast 228 422 1,006 766 Climbing FAA TRACON SMA TRACON (SMA)
Wed 16:26:12 42.2883 -83.2825 34° Northeast 261 483 1,311 840 Climbing FAA TRACON SMA TRACON (SMA)
Wed 16:26:29 42.3025 -83.2686 36° Northeast 275 509 1,524 988 Climbing FAA TRACON SMA TRACON (SMA)
Wed 16:26:49 42.3239 -83.2458 38° Northeast 288 533 1,920 1,189 Climbing FAA TRACON SMA TRACON (SMA)
Wed 16:27:09 42.3364 -83.2097 65° Northeast 311 576 2,316 1,052 Climbing FAA TRACON SMA TRACON (SMA)
Wed 16:27:29 42.3342 -83.1772 95° East 309 573 2,621 914 Climbing FAA TRACON SMA TRACON (SMA)
Wed 16:27:49 42.3247 -83.1400 109° East 321 594 2,926 914 Climbing FAA TRACON SMA TRACON (SMA)
Wed 16:28:09 42.3133 -83.0931 108° East 349 647 3,231 732 Climbing FAA TRACON SMA TRACON (SMA)
Wed 16:28:29 42.3039 -83.0528 108° East 364 674 3,414 640 Climbing FAA TRACON SMA TRACON (SMA)
Wed 16:28:49 42.2931 -83.0106 109° East 385 713 3,658 714 Climbing FAA TRACON SMA TRACON (SMA)
Wed 16:29:10 42.2786 -82.9564 110° East 404 748 3,901 457 Climbing FAA TRACON SMA TRACON (SMA)
Wed 16:29:29 42.2731 -82.9094 99° East 414 766 3,962 187 Climbing FAA TRACON SMA TRACON (SMA)
Wed 16:29:49 42.2703 -82.8625 95° East 403 747 4,023 340 Climbing FAA TRACON SMA TRACON (SMA)
Wed 16:30:12 42.2653 -82.8036 97° East 411 761 4,206 510 Climbing FAA TRACON SMA TRACON (SMA)
Wed 16:30:32 42.2592 -82.7567 100° East 414 766 4,389 578 Climbing FAA TRACON SMA TRACON (SMA)
Wed 16:30:50 42.2592 -82.7075 90° East 438 811 4,572 692 Climbing FAA TRACON SMA TRACON (SMA)
Wed 16:31:09 42.2600 -82.6439 89° East 448 830 4,816 844 Climbing FAA TRACON SMA TRACON (SMA)
Wed 16:31:29 42.2606 -82.5922 89° East 447 827 5,121 914 Climbing FAA TRACON SMA TRACON (SMA)
Wed 16:31:49 42.2619 -82.5400 88° East 452 837 5,425 1,006 Climbing FAA TRACON SMA TRACON (SMA)
Wed 16:32:09 42.2622 -82.4750 90° East 452 837 5,791 1,006 Climbing FAA TRACON SMA TRACON (SMA)
Wed 16:32:29 42.2622 -82.4231 90° East 451 835 6,096 823 Climbing FAA TRACON SMA TRACON (SMA)
Wed 16:32:49 42.2622 -82.3711 90° East 451 835 6,340 758 Climbing FAA TRACON SMA TRACON (SMA)
Wed 16:33:10 42.2631 -82.3050 89° East 455 843 6,614 732 Climbing FAA TRACON SMA TRACON (SMA)
Wed 16:33:29 42.2636 -82.2519 89° East 459 850 6,828 563 Climbing FAA TRACON SMA TRACON (SMA)
Wed 16:33:49 42.2644 -82.1975 89° East 461 855 6,980 274 Climbing FAA TRACON SMA TRACON (SMA)
Wed 16:34:09 42.2656 -82.1706 87° East 462 856 7,010 333 Climbing FAA TRACON SMA TRACON (SMA)
Wed 16:34:33 42.2650 -82.0703 90° East 453 838 7,224 588 Climbing Cleveland Center
Wed 16:35:33 42.2672 -81.8906 89° East 463 858 7,833 594 Climbing Cleveland Center
Wed 16:36:33 42.2753 -81.7197 86° East 463 858 8,412 472 Climbing Cleveland Center
Wed 16:37:33 42.2750 -81.5400 90° East 463 858 8,778 411 Climbing Cleveland Center
Wed 16:38:33 42.2658 -81.3575 94° East 478 885 9,235 320 Climbing Cleveland Center
Wed 16:39:33 42.2500 -81.1975 98° East 485 898 9,418 107 Climbing Cleveland Center
Wed 16:40:33 42.1694 -81.0678 130° Southeast 447 827 9,449 15 Climbing Cleveland Center
Wed 16:41:33 42.0636 -80.9719 146° Southeast 445 824 9,449  Level Cleveland Center
Wed 16:42:33 41.9553 -80.8903 151° Southeast 452 837 9,449  Level Cleveland Center
Wed 16:43:33 41.8325 -80.8200 157° South 465 861 9,449  Level Cleveland Center
Wed 16:44:33 41.7036 -80.7389 155° Southeast 471 872 9,449  Level Cleveland Center
Wed 16:45:33 41.5869 -80.6664 155° Southeast 471 872 9,449  Level Cleveland Center
Wed 16:46:33 41.4722 -80.5969 156° South 465 861 9,449  Level Cleveland Center
Wed 16:47:33 41.3533 -80.5250 156° South 459 850 9,449  Level Cleveland Center
Wed 16:48:33 41.2386 -80.4561 156° South 459 850 9,449  Level Cleveland Center
Wed 16:49:33 41.1344 -80.3928 155° Southeast 459 850 9,449  Level Cleveland Center
Wed 16:50:33 41.0175 -80.3244 156° South 459 850 9,449  Level Cleveland Center
Wed 16:51:33 40.9025 -80.2533 155° Southeast 459 850 9,449  Level Cleveland Center
Wed 16:52:33 40.8022 -80.1525 143° Southeast 459 850 9,449  Level Cleveland Center
Wed 16:53:33 40.7411 -79.9994 118° Southeast 443 821 9,449  Level Cleveland Center
Wed 16:54:33 40.6672 -79.8550 124° Southeast 456 845 9,449  Level Cleveland Center
Wed 16:55:33 40.5850 -79.7028 125° Southeast 468 867 9,449  Level Cleveland Center
Wed 16:56:33 40.5086 -79.5644 126° Southeast 473 875 9,449 -107 Level Cleveland Center
Wed 16:57:33 40.4364 -79.4211 123° Southeast 473 875 9,235 -183 Descending Cleveland Center
Wed 16:58:33 40.3642 -79.2914 126° Southeast 478 885 9,083 -137 Descending Cleveland Center
Wed 16:59:33 40.2917 -79.1486 124° Southeast 478 885 8,961 -122 Descending Cleveland Center
Wed 17:00:33 40.2122 -78.9817 122° Southeast 483 895 8,839 -61 Descending Cleveland Center
Wed 17:01:33 40.1494 -78.8283 118° Southeast 483 895 8,839 -30 Level Cleveland Center
Wed 17:02:33 40.0969 -78.6697 113° Southeast 478 885 8,778 -168 Descending Cleveland Center
Wed 17:03:33 40.1025 -78.5039 87° East 456 845 8,504 -259 Descending Cleveland Center
Wed 17:04:33 40.1581 -78.3556 64° Northeast 433 801 8,260 -109 Descending Cleveland Center
Wed 17:06:04 40.2417 -78.1461 62° Northeast 440 814 8,230 -169 Descending New York Center
Wed 17:07:04 40.2983 -78.0053 62° Northeast 445 824 7,833 -300 Descending New York Center
Wed 17:08:06 40.3144 -77.8433 83° East 445 824 7,620 -259 Descending New York Center
Wed 17:09:04 40.3008 -77.6842 96° East 435 806 7,315 -400 Descending New York Center
Wed 17:10:05 40.2775 -77.5103 100° East 440 814 6,828 -435 Descending New York Center
Wed 17:11:06 40.2569 -77.3586 100° East 434 803 6,431 -378 Descending New York Center
Wed 17:12:06 40.2394 -77.2211 99° East 429 795 6,066 -387 Descending New York Center
Wed 17:13:04 40.2208 -77.0617 99° East 436 808 5,669 -450 Descending New York Center
Wed 17:14:04 40.1989 -76.8883 99° East 436 808 5,182 -423 Descending New York Center
Wed 17:15:05 40.1775 -76.7342 100° East 430 797 4,816 -363 Descending New York Center
Wed 17:16:05 40.1581 -76.5778 99° East 430 797 4,450 -366 Descending New York Center
Wed 17:17:05 40.1419 -76.4406 99° East 430 797 4,084 -366 Descending New York Center
Wed 17:18:10 40.1186 -76.2636 100° East 411 761 3,688 -366 Descending FAA TRACON SMA TRACON (SMA)
Wed 17:18:30 40.1147 -76.2131 96° East 404 748 3,566 -366 Descending FAA TRACON SMA TRACON (SMA)
Wed 17:18:50 40.1117 -76.1689 95° East 400 740 3,444 -335 Descending FAA TRACON SMA TRACON (SMA)
Wed 17:19:30 40.1061 -76.0733 94° East 381 705 3,231 -305 Descending FAA TRACON SMA TRACON (SMA)
Wed 17:19:50 40.1039 -76.0333 94° East 366 678 3,139 -223 Descending FAA TRACON SMA TRACON (SMA)
Wed 17:20:11 40.0997 -75.9856 96° East 340 629 3,078 -333 Descending FAA TRACON SMA TRACON (SMA)
Wed 17:20:34 40.0961 -75.9403 96° East 329 610 2,896 -425 Descending FAA TRACON SMA TRACON (SMA)
Wed 17:20:54 40.0942 -75.9039 94° East 329 610 2,774 -445 Descending FAA TRACON SMA TRACON (SMA)
Wed 17:21:11 40.0919 -75.8683 95° East 324 600 2,621 -494 Descending FAA TRACON SMA TRACON (SMA)
Wed 17:21:31 40.0886 -75.8342 97° East 319 591 2,469 -366 Descending FAA TRACON SMA TRACON (SMA)
Wed 17:21:51 40.0858 -75.7994 96° East 315 583 2,377 -366 Descending FAA TRACON SMA TRACON (SMA)
Wed 17:22:11 40.0836 -75.7636 95° East 314 581 2,225 -503 Descending FAA TRACON SMA TRACON (SMA)
Wed 17:22:31 40.0811 -75.7208 94° East 309 573 2,042 -503 Descending FAA TRACON SMA TRACON (SMA)
Wed 17:22:51 40.0828 -75.6872 86° East 308 570 1,890 -320 Descending FAA TRACON SMA TRACON (SMA)
Wed 17:23:11 40.0847 -75.6522 86° East 295 546 1,829 -91 Descending FAA TRACON SMA TRACON (SMA)
Wed 17:23:31 40.0858 -75.6125 88° East 296 549 1,829  Level FAA TRACON SMA TRACON (SMA)
Wed 17:25:04 40.0917 -75.4458 87° East 297 550 1,829  Level New York Center
Wed 17:25:31 40.0956 -75.3953 84° East 293 542 1,829  Level FAA TRACON SMA TRACON (SMA)
Wed 17:25:51 40.0892 -75.3622 104° East 303 562 1,829  Level FAA TRACON SMA TRACON (SMA)
Wed 17:26:11 40.0828 -75.3294 104° East 309 573 1,829  Level FAA TRACON SMA TRACON (SMA)
Wed 17:26:31 40.0742 -75.2894 106° East 298 552 1,829  Level FAA TRACON SMA TRACON (SMA)
Wed 17:26:50 40.0681 -75.2592 105° East 298 552 1,829  Level FAA TRACON SMA TRACON (SMA)
Wed 17:27:11 40.0617 -75.2247 104° East 297 550 1,829 -45 Level FAA TRACON SMA TRACON (SMA)
Wed 17:27:31 40.0550 -75.1856 103° East 294 544 1,798 -187 Descending FAA TRACON SMA TRACON (SMA)
Wed 17:27:50 40.0475 -75.1536 107° East 290 538 1,707 -328 Descending FAA TRACON SMA TRACON (SMA)
Wed 17:28:10 40.0414 -75.1242 105° East 285 528 1,585 -320 Descending FAA TRACON SMA TRACON (SMA)
Wed 17:28:30 40.0319 -75.0950 113° Southeast 279 517 1,494 -320 Descending FAA TRACON SMA TRACON (SMA)
Wed 17:28:50 40.0125 -75.0733 140° Southeast 248 459 1,372 -366 Descending FAA TRACON SMA TRACON (SMA)
Wed 17:29:10 39.9936 -75.0594 151° Southeast 239 443 1,250 -411 Descending FAA TRACON SMA TRACON (SMA)
Wed 17:29:30 39.9750 -75.0567 173° South 234 433 1,097 -503 Descending FAA TRACON SMA TRACON (SMA)
Wed 17:29:50 39.9531 -75.0592 185° South 199 369 914 -420 Descending FAA TRACON SMA TRACON (SMA)
Wed 17:30:31 39.9250 -75.0775 207° Southwest 173 320 671 -305 Descending FAA TRACON SMA TRACON (SMA)
Wed 17:30:50 39.9108 -75.0919 218° Southwest 171 317 610 -141 Descending FAA TRACON SMA TRACON (SMA)
Wed 17:31:10 39.9000 -75.1022 216° Southwest 158 293 579 -183 Descending FAA TRACON SMA TRACON (SMA)
Wed 17:31:30 39.8950 -75.1178 247° West 149 275 488 -274 Descending FAA TRACON SMA TRACON (SMA)
Wed 17:31:50 39.8922 -75.1339 257° West 158 293 396 -229 Descending FAA TRACON SMA TRACON (SMA)
Wed 17:32:10 39.8892 -75.1533 258° West 139 257 335 -183 Descending FAA TRACON SMA TRACON (SMA)
Wed 17:32:30 39.8864 -75.1681 256° West 137 254 274 -229 Descending FAA TRACON SMA TRACON (SMA)
Wed 17:32:50 39.8839 -75.1803 255° West 132 245 183 -229 Descending FAA TRACON SMA TRACON (SMA)
Wed 17:33:10 39.8794 -75.2014 255° West 138 256 122 -178 Descending FAA TRACON SMA TRACON (SMA)
Wed 17:33:31 39.8764 -75.2164 255° West 138 256 61 -89 Descending FAA TRACON SMA TRACON (SMA)
Wed 17:33:51 39.8764 -75.2164 143° Southeast 138 256 61  Level FAA TRACON SMA TRACON (SMA)
Wed 17:35:00 39.8667 -75.2333 270° West  Level FlightAware Approximate

Login

Don't have an account? Register now (free) for customized features, flight alerts, and more!